Time;durP1;ratioP1;P1;durP2;ratioP2;P2;SDS_P1;SDS_P2;PMS_P1;PMS_P2;Temp;Humidity;BMP_temperature;BMP_pressure;BME280_temperature;BME280_humidity;BME280_pressure;Samples;Min_cycle;Max_cycle;Signal;HPM_P1;HPM_P2
2023/06/29 00:01:02;;;;;;;10.88;4.43;;;23.60;61.70;;;;;;5005744;28;20060;-56
2023/06/29 00:03:29;;;;;;;11.85;4.35;;;23.60;61.60;;;;;;5012463;28;20072;-55
2023/06/29 00:05:55;;;;;;;12.25;4.97;;;23.60;61.50;;;;;;5012789;28;20496;-54
2023/06/29 00:08:26;;;;;;;12.07;4.45;;;23.60;61.50;;;;;;5010235;28;20022;-57
2023/06/29 00:10:53;;;;;;;12.70;4.80;;;23.60;61.40;;;;;;5011601;28;20041;-56
2023/06/29 00:13:19;;;;;;;11.38;4.70;;;23.60;61.40;;;;;;5013222;28;20037;-53
2023/06/29 00:15:46;;;;;;;13.32;4.68;;;23.60;61.30;;;;;;5012977;28;20053;-55
2023/06/29 00:18:15;;;;;;;14.65;4.68;;;23.60;61.30;;;;;;5012945;28;20037;-52
2023/06/29 00:20:42;;;;;;;9.70;3.85;;;23.60;61.30;;;;;;5007029;28;20104;-55
2023/06/29 00:23:09;;;;;;;11.10;4.18;;;23.60;61.40;;;;;;5011441;28;20096;-56
2023/06/29 00:25:35;;;;;;;10.35;4.75;;;23.60;61.20;;;;;;5012551;28;20049;-55
2023/06/29 00:28:01;;;;;;;12.73;4.60;;;23.60;61.20;;;;;;5006993;28;20385;-50
2023/06/29 00:30:28;;;;;;;14.07;4.28;;;23.60;61.10;;;;;;4988217;28;20022;-56
2023/06/29 00:32:53;;;;;;;11.85;4.25;;;23.60;61.20;;;;;;5008006;28;20494;-54
2023/06/29 00:35:19;;;;;;;13.07;4.38;;;23.60;61.40;;;;;;5009095;28;20056;-55
2023/06/29 00:37:45;;;;;;;10.45;4.10;;;23.60;61.10;;;;;;5010127;28;20034;-56
2023/06/29 00:40:12;;;;;;;16.45;4.35;;;23.60;61.10;;;;;;5010822;28;20489;-56
2023/06/29 00:42:37;;;;;;;11.05;4.43;;;23.60;61.00;;;;;;5010029;28;20053;-53
2023/06/29 00:45:04;;;;;;;9.40;4.40;;;23.60;61.10;;;;;;5008171;28;20058;-53
2023/06/29 00:47:32;;;;;;;14.75;4.40;;;23.60;61.00;;;;;;5011120;28;20371;-56
2023/06/29 00:50:00;;;;;;;12.82;4.00;;;23.60;61.00;;;;;;5011189;28;20026;-52
2023/06/29 00:52:27;;;;;;;13.70;4.25;;;23.60;61.10;;;;;;5012680;28;20030;-53
2023/06/29 00:54:57;;;;;;;14.32;4.63;;;23.60;61.10;;;;;;5012252;28;20132;-55
2023/06/29 00:57:24;;;;;;;12.85;4.18;;;23.60;61.10;;;;;;4994282;28;20038;-52
2023/06/29 00:59:50;;;;;;;7.97;4.00;;;23.60;61.10;;;;;;5011089;28;20117;-50
2023/06/29 01:02:17;;;;;;;15.18;4.60;;;23.60;61.00;;;;;;5010272;28;20030;-54
2023/06/29 01:04:45;;;;;;;10.60;4.13;;;23.60;61.00;;;;;;5007878;28;20501;-52
2023/06/29 01:07:50;;;;;;;10.77;4.05;;;23.60;61.10;;;;;;5008703;28;20493;-54
2023/06/29 01:10:22;;;;;;;15.00;4.18;;;23.60;61.00;;;;;;4988246;28;20042;-53
2023/06/29 01:12:49;;;;;;;11.75;4.30;;;23.60;61.00;;;;;;5010943;28;20256;-56
2023/06/29 01:15:16;;;;;;;12.07;4.22;;;23.60;61.00;;;;;;5011100;28;20080;-55
2023/06/29 01:17:45;;;;;;;11.82;4.00;;;23.60;61.00;;;;;;5010662;28;20037;-56
2023/06/29 01:20:14;;;;;;;9.85;3.88;;;23.60;61.00;;;;;;5010766;28;20033;-51
2023/06/29 01:23:05;;;;;;;18.60;4.30;;;23.60;61.00;;;;;;5011744;28;20033;-53
2023/06/29 01:25:32;;;;;;;9.75;3.90;;;23.60;61.10;;;;;;5002390;28;20104;-52
2023/06/29 01:27:58;;;;;;;9.07;3.83;;;23.60;61.10;;;;;;5011784;28;20370;-56
2023/06/29 01:30:26;;;;;;;9.00;3.58;;;23.60;61.00;;;;;;5005798;28;20069;-54
2023/06/29 01:32:55;;;;;;;10.32;3.75;;;23.50;61.10;;;;;;5005968;28;20026;-53
2023/06/29 01:35:21;;;;;;;9.18;3.50;;;23.60;61.10;;;;;;5011101;28;20176;-50
2023/06/29 01:38:07;;;;;;;8.38;3.92;;;23.50;61.10;;;;;;5010838;28;20025;-53
2023/06/29 01:40:37;;;;;;;10.27;3.67;;;23.50;61.10;;;;;;5007907;28;20045;-54
2023/06/29 01:43:04;;;;;;;8.85;3.83;;;23.60;61.10;;;;;;5010089;28;20022;-53
2023/06/29 01:45:31;;;;;;;8.95;3.50;;;23.60;61.20;;;;;;5007113;28;20029;-57
2023/06/29 01:47:57;;;;;;;8.52;3.85;;;23.60;61.30;;;;;;5012071;28;20029;-52
2023/06/29 01:50:24;;;;;;;10.43;3.63;;;23.50;61.10;;;;;;5010440;28;20029;-51
2023/06/29 01:52:50;;;;;;;9.00;3.45;;;23.60;61.20;;;;;;5010962;28;20092;-53
2023/06/29 01:55:15;;;;;;;10.07;3.90;;;23.50;61.10;;;;;;5009770;28;20030;-56
2023/06/29 01:57:41;;;;;;;8.82;3.70;;;23.50;61.10;;;;;;5007367;28;20033;-55
2023/06/29 02:00:08;;;;;;;8.38;3.67;;;23.50;61.10;;;;;;5008548;28;20076;-56
2023/06/29 02:02:40;;;;;;;7.93;3.25;;;23.50;61.10;;;;;;5009359;28;20525;-57
2023/06/29 02:05:07;;;;;;;7.78;3.63;;;23.50;61.30;;;;;;5011034;28;20034;-57
2023/06/29 02:07:33;;;;;;;9.18;3.67;;;23.50;61.30;;;;;;5010136;28;20588;-56
2023/06/29 02:09:59;;;;;;;8.00;3.22;;;23.50;61.20;;;;;;5011273;28;20109;-57
2023/06/29 02:12:25;;;;;;;6.90;3.67;;;23.50;61.30;;;;;;5007781;28;20402;-52
2023/06/29 02:14:51;;;;;;;12.00;3.53;;;23.50;61.20;;;;;;5005051;28;20033;-55
2023/06/29 02:17:17;;;;;;;9.35;3.50;;;23.50;61.30;;;;;;5004746;28;20084;-57
2023/06/29 02:19:42;;;;;;;10.35;3.47;;;23.50;61.20;;;;;;5009818;28;20072;-54
2023/06/29 02:22:09;;;;;;;10.32;3.45;;;23.50;61.20;;;;;;5011350;28;20058;-56
2023/06/29 02:24:34;;;;;;;8.50;3.53;;;23.50;61.20;;;;;;5003312;28;20045;-57
2023/06/29 02:27:01;;;;;;;10.98;3.90;;;23.50;61.10;;;;;;5010871;28;20095;-57
2023/06/29 02:29:27;;;;;;;7.15;3.65;;;23.50;61.10;;;;;;5010850;28;20410;-53
2023/06/29 02:31:52;;;;;;;8.07;3.28;;;23.50;61.20;;;;;;5011036;28;20022;-55
2023/06/29 02:34:20;;;;;;;7.45;3.40;;;23.50;61.10;;;;;;5004474;28;20069;-57
2023/06/29 02:36:46;;;;;;;7.75;3.03;;;23.50;61.10;;;;;;5009601;28;20033;-56
2023/06/29 02:39:14;;;;;;;8.38;3.45;;;23.50;61.10;;;;;;5008981;28;20026;-58
2023/06/29 02:41:40;;;;;;;6.38;3.10;;;23.50;61.20;;;;;;5010748;28;20037;-54
2023/06/29 02:44:06;;;;;;;8.73;3.38;;;23.50;61.10;;;;;;5009341;28;20034;-56
2023/06/29 02:46:32;;;;;;;8.57;3.22;;;23.50;61.30;;;;;;4998574;28;20029;-54
2023/06/29 02:48:58;;;;;;;5.63;3.00;;;23.50;61.10;;;;;;5004541;28;20030;-54
2023/06/29 02:51:24;;;;;;;7.00;3.20;;;23.50;61.10;;;;;;5005185;28;20371;-55
2023/06/29 02:53:55;;;;;;;5.80;2.88;;;23.50;61.10;;;;;;5009092;28;20049;-55
2023/06/29 02:56:22;;;;;;;8.00;3.45;;;23.50;61.20;;;;;;5008349;28;20022;-56
2023/06/29 02:58:47;;;;;;;7.22;3.05;;;23.50;61.30;;;;;;5010086;28;20401;-55
2023/06/29 03:01:19;;;;;;;8.60;3.10;;;23.50;61.30;;;;;;5009011;28;20053;-55
2023/06/29 03:03:45;;;;;;;7.13;2.90;;;23.50;61.20;;;;;;5006237;28;20501;-55
2023/06/29 03:06:11;;;;;;;10.50;3.65;;;23.50;61.20;;;;;;5011196;28;20028;-54
2023/06/29 03:08:37;;;;;;;6.45;3.15;;;23.50;61.30;;;;;;5006652;28;20145;-55
2023/06/29 03:11:03;;;;;;;5.65;3.05;;;23.50;61.30;;;;;;5014502;28;20104;-57
2023/06/29 03:13:28;;;;;;;8.32;3.30;;;23.50;61.20;;;;;;5014308;28;20022;-58
2023/06/29 03:15:59;;;;;;;4.88;2.70;;;23.50;61.10;;;;;;5014169;28;20061;-57
2023/06/29 03:18:25;;;;;;;7.13;3.03;;;23.50;61.20;;;;;;5008416;28;20037;-56
2023/06/29 03:20:51;;;;;;;7.05;2.88;;;23.50;61.20;;;;;;5009797;28;20026;-58
2023/06/29 03:23:16;;;;;;;7.65;2.90;;;23.50;61.20;;;;;;5013137;28;20117;-57
2023/06/29 03:25:42;;;;;;;9.60;3.28;;;23.50;61.10;;;;;;5013921;28;20241;-57
2023/06/29 03:28:08;;;;;;;6.95;3.10;;;23.50;61.20;;;;;;5010411;28;20030;-57
2023/06/29 03:30:34;;;;;;;6.95;3.13;;;23.50;61.00;;;;;;5013425;28;20064;-57
2023/06/29 03:33:01;;;;;;;6.07;3.00;;;23.50;61.20;;;;;;5013443;28;20034;-55
2023/06/29 03:35:26;;;;;;;9.60;2.95;;;23.50;61.10;;;;;;5010083;28;20551;-57
2023/06/29 03:37:52;;;;;;;9.18;3.20;;;23.50;61.10;;;;;;5013165;28;20109;-56
2023/06/29 03:40:18;;;;;;;4.47;2.58;;;23.50;61.00;;;;;;5012013;28;20075;-57
2023/06/29 03:42:44;;;;;;;6.32;2.92;;;23.50;61.10;;;;;;5012543;28;20512;-58
2023/06/29 03:45:10;;;;;;;7.40;3.00;;;23.50;61.20;;;;;;5013573;28;20026;-57
2023/06/29 03:47:36;;;;;;;5.25;2.70;;;23.50;61.10;;;;;;5008768;28;20421;-57
2023/06/29 03:50:02;;;;;;;6.25;2.88;;;23.50;61.20;;;;;;5011318;28;20030;-56
2023/06/29 03:52:28;;;;;;;6.90;2.83;;;23.50;61.10;;;;;;5013568;28;20030;-57
2023/06/29 03:54:53;;;;;;;6.60;3.05;;;23.50;61.10;;;;;;5003976;28;20600;-56
2023/06/29 03:57:19;;;;;;;7.13;2.85;;;23.50;61.20;;;;;;5013191;28;20033;-57
2023/06/29 03:59:45;;;;;;;7.63;3.45;;;23.50;61.10;;;;;;5013334;28;20044;-57
2023/06/29 04:02:11;;;;;;;9.93;3.05;;;23.50;61.10;;;;;;5011506;28;20029;-56
2023/06/29 04:04:36;;;;;;;10.95;3.47;;;23.50;61.20;;;;;;5007653;28;20018;-57
2023/06/29 04:07:02;;;;;;;6.10;3.20;;;23.50;61.30;;;;;;5010197;28;20520;-57
2023/06/29 04:09:28;;;;;;;6.35;2.90;;;23.50;61.20;;;;;;5009163;28;20026;-57
2023/06/29 04:11:54;;;;;;;6.07;2.90;;;23.50;61.10;;;;;;5013443;28;20505;-57
2023/06/29 04:14:20;;;;;;;7.93;3.30;;;23.50;61.20;;;;;;5012255;28;20129;-56
2023/06/29 04:16:45;;;;;;;8.07;3.00;;;23.50;61.10;;;;;;5009334;28;20026;-58
2023/06/29 04:19:11;;;;;;;7.30;3.25;;;23.50;61.20;;;;;;5005022;28;20412;-56
2023/06/29 04:21:37;;;;;;;7.50;3.28;;;23.50;61.10;;;;;;5012328;28;20053;-57
2023/06/29 04:24:03;;;;;;;7.97;3.50;;;23.50;61.10;;;;;;5007486;28;20033;-57
2023/06/29 04:26:29;;;;;;;6.05;3.00;;;23.50;61.10;;;;;;5009566;28;20022;-57
2023/06/29 04:29:02;;;;;;;7.38;3.65;;;23.50;61.30;;;;;;5011020;28;20133;-57
2023/06/29 04:31:29;;;;;;;6.38;3.20;;;23.50;61.20;;;;;;5007212;28;20052;-57
2023/06/29 04:33:58;;;;;;;6.38;3.20;;;23.50;61.30;;;;;;5011747;28;20107;-55
2023/06/29 04:36:24;;;;;;;8.95;3.33;;;23.50;61.30;;;;;;5008188;28;20037;-55
2023/06/29 04:38:51;;;;;;;6.18;3.15;;;23.50;61.30;;;;;;5007751;28;20052;-58
2023/06/29 04:41:17;;;;;;;7.97;3.40;;;23.50;61.30;;;;;;5012209;28;20069;-55
2023/06/29 04:43:46;;;;;;;7.50;3.10;;;23.50;61.30;;;;;;5012451;28;20054;-57
2023/06/29 04:46:11;;;;;;;7.45;3.40;;;23.50;61.30;;;;;;5006649;28;20049;-59
2023/06/29 04:48:37;;;;;;;7.72;3.30;;;23.50;61.30;;;;;;5003205;28;20021;-54
2023/06/29 04:51:05;;;;;;;5.22;2.80;;;23.50;61.30;;;;;;5012616;28;20113;-55
2023/06/29 04:53:37;;;;;;;6.53;3.00;;;23.50;61.30;;;;;;5011184;28;20402;-56
2023/06/29 04:56:03;;;;;;;8.27;3.42;;;23.50;61.30;;;;;;5006305;28;20072;-54
2023/06/29 04:58:29;;;;;;;4.90;2.90;;;23.50;61.30;;;;;;5002430;28;20065;-58
2023/06/29 05:00:55;;;;;;;6.88;3.47;;;23.50;61.40;;;;;;5011862;28;20054;-55
2023/06/29 05:03:21;;;;;;;7.25;3.22;;;23.50;61.30;;;;;;5006845;28;20030;-57
2023/06/29 05:05:47;;;;;;;6.82;3.15;;;23.50;61.40;;;;;;5011672;28;20080;-55
2023/06/29 05:08:13;;;;;;;7.55;3.50;;;23.50;61.50;;;;;;5007000;28;20068;-57
2023/06/29 05:10:39;;;;;;;6.78;3.45;;;23.50;61.40;;;;;;5006373;28;20033;-57
2023/06/29 05:13:05;;;;;;;8.32;3.17;;;23.50;61.50;;;;;;5011515;28;20022;-56
2023/06/29 05:15:31;;;;;;;7.80;3.40;;;23.50;61.50;;;;;;5011764;28;20124;-56
2023/06/29 05:17:56;;;;;;;9.18;3.20;;;23.50;61.50;;;;;;5011867;28;20033;-57
2023/06/29 05:20:22;;;;;;;12.07;3.70;;;23.50;61.50;;;;;;5006624;28;20025;-57
2023/06/29 05:22:48;;;;;;;7.78;3.47;;;23.50;61.40;;;;;;5032293;23;20050;-40
2023/06/29 05:25:14;;;;;;;7.90;2.95;;;23.50;61.40;;;;;;5013610;28;20309;-40
2023/06/29 05:27:41;;;;;;;6.03;3.40;;;23.50;61.40;;;;;;4994244;28;20034;-44
2023/06/29 05:30:10;;;;;;;7.05;3.30;;;23.50;61.30;;;;;;5004760;28;20022;-40
2023/06/29 05:32:37;;;;;;;5.88;3.55;;;23.50;61.30;;;;;;5018102;28;20029;-42
2023/06/29 05:35:03;;;;;;;7.28;3.03;;;23.50;61.30;;;;;;5011742;28;20415;-42
2023/06/29 05:37:29;;;;;;;7.05;3.47;;;23.50;61.20;;;;;;5019303;28;20485;-41
2023/06/29 05:39:56;;;;;;;12.65;3.55;;;23.50;61.30;;;;;;5016746;28;20033;-44
2023/06/29 05:42:26;;;;;;;8.27;3.53;;;23.50;61.30;;;;;;5010698;28;20034;-41
2023/06/29 05:44:53;;;;;;;9.85;3.50;;;23.50;61.30;;;;;;5011263;28;20028;-43
2023/06/29 05:47:19;;;;;;;9.00;2.78;;;23.50;61.30;;;;;;5011526;28;20049;-45
2023/06/29 05:49:45;;;;;;;8.13;3.47;;;23.50;61.30;;;;;;5008471;28;20022;-46
2023/06/29 05:52:11;;;;;;;9.52;3.53;;;23.50;61.10;;;;;;5011036;28;20054;-43
2023/06/29 05:54:38;;;;;;;9.45;3.40;;;23.50;61.20;;;;;;5010591;28;20050;-42
2023/06/29 05:57:04;;;;;;;8.70;3.35;;;23.40;61.10;;;;;;5011482;28;20030;-49
2023/06/29 05:59:30;;;;;;;7.30;3.08;;;23.40;60.90;;;;;;5011873;28;20028;-49
2023/06/29 06:01:56;;;;;;;6.75;3.55;;;23.40;60.80;;;;;;5008480;28;20409;-41
2023/06/29 06:04:22;;;;;;;14.52;3.28;;;23.40;60.20;;;;;;5010618;28;20030;-44
2023/06/29 06:06:47;;;;;;;13.98;3.78;;;23.40;60.70;;;;;;5011417;28;20495;-45
2023/06/29 06:09:13;;;;;;;16.90;3.80;;;23.40;61.70;;;;;;5011457;28;20036;-47
2023/06/29 06:11:39;;;;;;;10.60;3.30;;;23.40;61.90;;;;;;5001445;28;20073;-41
2023/06/29 06:14:05;;;;;;;11.40;3.50;;;23.40;61.50;;;;;;5009090;28;20057;-41
2023/06/29 06:16:31;;;;;;;13.05;3.17;;;23.40;61.20;;;;;;5011416;28;20029;-44
2023/06/29 06:18:56;;;;;;;10.48;3.42;;;23.40;60.70;;;;;;5011418;28;20493;-44
2023/06/29 06:21:24;;;;;;;10.27;3.03;;;23.40;61.80;;;;;;5011129;28;20026;-44
2023/06/29 06:23:50;;;;;;;9.32;3.10;;;23.40;60.60;;;;;;5010100;28;20088;-47
2023/06/29 06:26:16;;;;;;;26.48;3.63;;;23.40;60.80;;;;;;5011011;28;20108;-47
2023/06/29 06:28:42;;;;;;;15.43;3.33;;;23.50;61.10;;;;;;5011331;28;20506;-48
2023/06/29 06:31:08;;;;;;;16.42;3.10;;;23.40;60.70;;;;;;5010805;28;20034;-47
2023/06/29 06:33:34;;;;;;;9.13;3.30;;;23.40;60.60;;;;;;5001190;28;20034;-44
2023/06/29 06:36:00;;;;;;;11.27;2.90;;;23.40;60.50;;;;;;5010409;28;20030;-45
2023/06/29 06:38:25;;;;;;;9.18;2.65;;;23.40;60.70;;;;;;5011296;28;20029;-44
2023/06/29 06:40:51;;;;;;;13.57;2.90;;;23.40;59.90;;;;;;5013123;28;20058;-44
2023/06/29 06:43:17;;;;;;;10.35;3.05;;;23.40;60.60;;;;;;5013084;28;20030;-45
2023/06/29 06:45:44;;;;;;;7.78;3.20;;;23.40;60.30;;;;;;5013451;28;20520;-44
2023/06/29 06:48:10;;;;;;;8.68;2.63;;;23.40;60.50;;;;;;5020124;28;20017;-44
2023/06/29 06:50:36;;;;;;;7.80;2.80;;;23.40;60.10;;;;;;5014906;28;20022;-45
2023/06/29 06:53:02;;;;;;;16.13;3.85;;;23.40;60.00;;;;;;5014749;28;20032;-42
2023/06/29 06:55:27;;;;;;;12.73;3.30;;;23.40;59.50;;;;;;5012388;28;20552;-42
2023/06/29 06:57:53;;;;;;;10.45;3.17;;;23.40;59.60;;;;;;5014797;28;20030;-45
2023/06/29 07:00:19;;;;;;;11.55;2.85;;;23.40;59.90;;;;;;5014735;28;20032;-44
2023/06/29 07:02:46;;;;;;;9.43;2.75;;;23.40;60.50;;;;;;5016657;28;20050;-47
2023/06/29 07:05:11;;;;;;;11.10;2.63;;;23.40;59.80;;;;;;5013691;28;20109;-48
2023/06/29 07:07:37;;;;;;;9.05;2.70;;;23.40;60.10;;;;;;5013754;28;20105;-49
2023/06/29 07:10:04;;;;;;;12.43;2.63;;;23.40;60.00;;;;;;5015687;28;20371;-42
2023/06/29 07:12:30;;;;;;;6.85;2.28;;;23.40;59.10;;;;;;5014955;28;20022;-43
2023/06/29 07:14:55;;;;;;;13.38;2.33;;;23.40;59.40;;;;;;5015135;28;20018;-47
2023/06/29 07:17:21;;;;;;;10.80;2.47;;;23.40;59.20;;;;;;5018775;28;20033;-49
2023/06/29 07:19:47;;;;;;;6.25;2.58;;;23.40;59.60;;;;;;5013127;28;20489;-45
2023/06/29 07:22:13;;;;;;;7.97;2.58;;;23.30;59.90;;;;;;5014225;28;20038;-47
2023/06/29 07:24:39;;;;;;;5.57;2.15;;;23.30;59.60;;;;;;5012624;28;20034;-42
2023/06/29 07:27:05;;;;;;;4.90;2.13;;;23.30;58.90;;;;;;5011920;28;20022;-45
2023/06/29 07:29:33;;;;;;;7.88;2.50;;;23.30;59.10;;;;;;5012837;28;20030;-43
2023/06/29 07:31:58;;;;;;;6.10;2.22;;;23.30;59.50;;;;;;5014014;28;20030;-45
2023/06/29 07:34:24;;;;;;;6.70;2.40;;;23.30;59.50;;;;;;5013882;28;20041;-46
2023/06/29 07:36:51;;;;;;;7.15;2.58;;;23.30;59.00;;;;;;5013991;28;20040;-47
2023/06/29 07:39:17;;;;;;;5.38;2.63;;;23.30;59.10;;;;;;5012534;28;20493;-42
2023/06/29 07:41:43;;;;;;;6.88;2.63;;;23.30;59.30;;;;;;5013990;28;20037;-43
2023/06/29 07:44:09;;;;;;;7.38;3.63;;;23.30;58.80;;;;;;5013567;28;20030;-45
2023/06/29 07:46:35;;;;;;;10.30;3.40;;;23.30;58.60;;;;;;4996370;28;20053;-43
2023/06/29 07:49:00;;;;;;;7.38;3.47;;;23.30;58.40;;;;;;5012133;28;20054;-46
2023/06/29 07:51:32;;;;;;;4.95;2.58;;;23.30;59.10;;;;;;5009373;28;20041;-44
2023/06/29 07:54:00;;;;;;;7.45;3.08;;;23.30;58.90;;;;;;5013475;28;20017;-41
2023/06/29 07:56:27;;;;;;;8.57;2.90;;;23.30;58.60;;;;;;5010747;28;20532;-45
2023/06/29 07:58:54;;;;;;;22.45;3.25;;;23.30;58.50;;;;;;5011808;28;20030;-42
2023/06/29 08:01:19;;;;;;;8.70;2.75;;;23.30;58.80;;;;;;5013403;28;20095;-42
2023/06/29 08:03:45;;;;;;;8.70;2.78;;;23.30;58.30;;;;;;5013431;28;20099;-50
2023/06/29 08:06:11;;;;;;;17.25;2.90;;;23.30;58.70;;;;;;5011647;28;20117;-47
2023/06/29 08:08:38;;;;;;;10.70;4.30;;;23.30;58.60;;;;;;5021024;28;20115;-45
2023/06/29 08:11:03;;;;;;;9.10;3.60;;;23.30;57.70;;;;;;5014058;28;20033;-48
2023/06/29 08:13:29;;;;;;;11.63;3.42;;;23.30;58.40;;;;;;5010873;28;20026;-46
2023/06/29 08:15:55;;;;;;;8.95;2.90;;;23.30;58.10;;;;;;5012789;28;20551;-48
2023/06/29 08:18:21;;;;;;;8.55;2.83;;;23.30;58.00;;;;;;5011700;28;20025;-43
2023/06/29 08:20:47;;;;;;;7.07;2.78;;;23.30;58.10;;;;;;5013343;28;20026;-44
2023/06/29 08:23:14;;;;;;;11.27;2.83;;;23.30;58.20;;;;;;5012844;28;20033;-44
2023/06/29 08:25:40;;;;;;;5.30;2.28;;;23.30;58.70;;;;;;5013172;28;20026;-48
2023/06/29 08:28:06;;;;;;;37.38;3.42;;;23.30;58.50;;;;;;5011225;28;20026;-44
2023/06/29 08:30:32;;;;;;;13.23;3.00;;;23.30;58.80;;;;;;5013027;28;20076;-46
2023/06/29 08:32:58;;;;;;;5.45;2.63;;;23.30;59.00;;;;;;5012615;28;20033;-46
2023/06/29 08:35:24;;;;;;;10.30;2.65;;;23.30;59.80;;;;;;5012819;28;20038;-46
2023/06/29 08:37:49;;;;;;;9.25;2.35;;;23.30;58.10;;;;;;5011217;28;20064;-46
2023/06/29 08:40:19;;;;;;;13.57;3.00;;;23.30;58.40;;;;;;5019098;28;20041;-47
2023/06/29 08:42:45;;;;;;;16.48;3.22;;;23.40;58.50;;;;;;5011955;28;20033;-43
2023/06/29 08:45:10;;;;;;;10.32;2.83;;;23.40;58.80;;;;;;5012787;28;20049;-42
2023/06/29 08:47:37;;;;;;;12.15;3.25;;;23.40;59.40;;;;;;4995403;28;20030;-48
2023/06/29 08:50:05;;;;;;;12.82;2.85;;;23.40;59.00;;;;;;5012939;28;20503;-45
2023/06/29 08:52:33;;;;;;;14.68;3.45;;;23.40;59.50;;;;;;5012586;28;20149;-45
2023/06/29 08:55:01;;;;;;;8.02;3.00;;;23.40;59.10;;;;;;5012878;28;20478;-42
2023/06/29 08:57:28;;;;;;;7.32;2.80;;;23.30;58.60;;;;;;5012866;28;20026;-43
2023/06/29 08:59:54;;;;;;;6.15;3.03;;;23.30;59.00;;;;;;5012687;28;20437;-43
2023/06/29 09:02:20;;;;;;;8.30;3.13;;;23.40;59.00;;;;;;5012498;28;20026;-48
2023/06/29 09:04:46;;;;;;;7.32;3.22;;;23.40;58.60;;;;;;5012434;28;20025;-43
2023/06/29 09:07:15;;;;;;;6.30;2.90;;;23.30;58.90;;;;;;5012645;28;20029;-46
2023/06/29 09:09:42;;;;;;;6.63;2.72;;;23.30;59.00;;;;;;5012661;28;20468;-43
2023/06/29 09:12:09;;;;;;;4.97;2.55;;;23.40;59.10;;;;;;4994988;28;20077;-42
2023/06/29 09:14:43;;;;;;;7.07;3.00;;;23.40;59.20;;;;;;5012198;28;20022;-45
2023/06/29 09:17:16;;;;;;;8.13;2.70;;;23.40;59.30;;;;;;5012454;28;20037;-44
2023/06/29 09:19:55;;;;;;;6.18;3.25;;;23.30;59.20;;;;;;5012409;28;20517;-43
2023/06/29 09:22:21;;;;;;;8.13;3.25;;;23.30;59.20;;;;;;5012244;28;20041;-46
2023/06/29 09:24:48;;;;;;;6.43;2.83;;;23.30;59.10;;;;;;5011989;28;20327;-43
2023/06/29 09:27:14;;;;;;;6.82;2.92;;;23.30;59.20;;;;;;5012337;28;20040;-42
2023/06/29 09:29:49;;;;;;;6.38;2.92;;;23.30;59.10;;;;;;5012338;28;20097;-43
2023/06/29 09:32:15;;;;;;;8.48;2.80;;;23.40;59.20;;;;;;4994740;28;20037;-50
2023/06/29 09:34:46;;;;;;;7.53;3.40;;;23.30;59.20;;;;;;5011964;28;20397;-43
2023/06/29 09:37:16;;;;;;;7.50;3.15;;;23.30;59.30;;;;;;5012195;28;20171;-45
2023/06/29 09:39:58;;;;;;;7.88;3.50;;;23.30;59.20;;;;;;5012070;28;20045;-48
2023/06/29 09:42:28;;;;;;;5.43;2.83;;;23.40;59.30;;;;;;5012118;28;20069;-43
2023/06/29 09:44:58;;;;;;;8.43;3.10;;;23.30;59.20;;;;;;5011797;28;20033;-49
2023/06/29 09:47:24;;;;;;;6.72;3.25;;;23.40;59.30;;;;;;5012113;28;20091;-48
2023/06/29 09:49:50;;;;;;;7.85;3.60;;;23.40;59.20;;;;;;5012025;28;20026;-45
2023/06/29 09:52:17;;;;;;;8.52;2.97;;;23.30;59.20;;;;;;5011902;28;20096;-47
2023/06/29 09:54:43;;;;;;;5.40;2.97;;;23.40;59.40;;;;;;4994327;28;20030;-48
2023/06/29 09:57:13;;;;;;;5.35;3.13;;;23.40;59.40;;;;;;5012410;28;20105;-48
2023/06/29 09:59:45;;;;;;;5.18;3.30;;;23.40;59.40;;;;;;5011941;28;20040;-47
2023/06/29 10:02:12;;;;;;;7.53;3.00;;;23.40;59.50;;;;;;5011983;28;20030;-44
2023/06/29 10:04:42;;;;;;;10.27;3.03;;;23.40;59.40;;;;;;4994124;28;20556;-44
2023/06/29 10:07:18;;;;;;;7.20;3.63;;;23.40;59.50;;;;;;5012445;28;20034;-42
2023/06/29 10:09:47;;;;;;;6.70;3.00;;;23.40;59.50;;;;;;4994674;28;20036;-43
2023/06/29 10:12:14;;;;;;;5.65;3.15;;;23.40;59.40;;;;;;5012207;28;20030;-44
2023/06/29 10:14:43;;;;;;;6.22;3.33;;;23.40;59.50;;;;;;5012551;28;20022;-43
2023/06/29 10:17:15;;;;;;;5.80;2.83;;;23.40;59.50;;;;;;5018476;28;20030;-47
2023/06/29 10:19:44;;;;;;;5.40;3.15;;;23.40;59.50;;;;;;5016147;28;20125;-48
2023/06/29 10:22:13;;;;;;;6.47;3.20;;;23.40;59.50;;;;;;4998189;28;20073;-49
2023/06/29 10:24:54;;;;;;;8.73;3.40;;;23.40;59.50;;;;;;5015431;28;20045;-42
2023/06/29 10:27:22;;;;;;;6.50;2.97;;;23.40;59.40;;;;;;5015674;28;20026;-42
2023/06/29 10:29:50;;;;;;;5.32;3.28;;;23.40;59.40;;;;;;5015644;28;20049;-42
2023/06/29 10:32:47;;;;;;;7.03;3.20;;;23.40;59.50;;;;;;5015527;28;20030;-43
2023/06/29 10:35:14;;;;;;;5.32;3.03;;;23.40;59.50;;;;;;5014625;28;20042;-45
2023/06/29 10:37:50;;;;;;;7.00;3.30;;;23.40;59.60;;;;;;5015666;28;20054;-44
2023/06/29 10:40:25;;;;;;;5.82;3.78;;;23.40;59.60;;;;;;5015473;28;20030;-45
2023/06/29 10:42:55;;;;;;;6.70;3.22;;;23.40;59.60;;;;;;5015196;28;20468;-43
2023/06/29 10:45:21;;;;;;;5.68;2.88;;;23.40;59.60;;;;;;5013963;28;20037;-43
2023/06/29 10:47:56;;;;;;;7.00;3.20;;;23.40;59.60;;;;;;5015317;28;20113;-43
2023/06/29 10:50:43;;;;;;;6.10;3.17;;;23.40;59.60;;;;;;5015420;28;20022;-43
2023/06/29 10:53:14;;;;;;;6.57;2.83;;;23.40;59.60;;;;;;5014837;28;20030;-43
2023/06/29 10:55:45;;;;;;;7.82;3.35;;;23.40;59.60;;;;;;5015044;28;20556;-42
2023/06/29 10:58:28;;;;;;;4.82;2.70;;;23.40;59.70;;;;;;5015139;28;20030;-44
2023/06/29 11:00:55;;;;;;;5.78;3.10;;;23.40;60.20;;;;;;5015138;28;20034;-44
2023/06/29 11:03:22;;;;;;;6.20;3.50;;;23.40;59.80;;;;;;5014683;28;20037;-45
2023/06/29 11:05:53;;;;;;;6.93;3.42;;;23.40;59.70;;;;;;5014821;28;20531;-50
2023/06/29 11:08:23;;;;;;;7.65;3.55;;;23.40;59.80;;;;;;5014959;28;20065;-50
2023/06/29 11:10:50;;;;;;;7.25;3.58;;;23.40;59.70;;;;;;5015008;28;20395;-45
2023/06/29 11:13:18;;;;;;;6.57;3.17;;;23.40;59.70;;;;;;5014374;28;20030;-43
2023/06/29 11:15:51;;;;;;;5.70;3.42;;;23.40;59.70;;;;;;5014692;28;20025;-42
2023/06/29 11:18:17;;;;;;;6.72;3.30;;;23.40;59.70;;;;;;5014707;28;20030;-46
2023/06/29 11:20:43;;;;;;;5.82;3.58;;;23.40;59.80;;;;;;5014566;28;20379;-42
2023/06/29 11:23:09;;;;;;;7.47;3.92;;;23.40;59.80;;;;;;5014154;28;20045;-42
2023/06/29 11:25:36;;;;;;;7.40;3.60;;;23.40;59.80;;;;;;5014433;28;20058;-42
2023/06/29 11:28:02;;;;;;;5.57;3.15;;;23.40;59.80;;;;;;5014544;28;20141;-42
2023/06/29 11:30:28;;;;;;;6.75;3.47;;;23.40;59.70;;;;;;5014644;28;20030;-43
2023/06/29 11:32:54;;;;;;;6.63;3.60;;;23.40;59.70;;;;;;5014065;28;20025;-43
2023/06/29 11:35:21;;;;;;;6.25;3.50;;;23.40;60.30;;;;;;5014812;28;20489;-43
2023/06/29 11:37:56;;;;;;;7.32;3.85;;;23.50;59.70;;;;;;5014391;28;20030;-43
2023/06/29 11:40:23;;;;;;;7.82;3.80;;;23.40;59.70;;;;;;5014277;28;20034;-44
2023/06/29 11:42:50;;;;;;;5.38;3.25;;;23.50;59.70;;;;;;5013880;28;20033;-42
2023/06/29 11:45:17;;;;;;;5.85;3.20;;;23.50;59.70;;;;;;5013851;28;20026;-47
2023/06/29 11:47:51;;;;;;;6.40;3.38;;;23.50;59.70;;;;;;5014389;28;20026;-44
2023/06/29 11:50:17;;;;;;;8.40;4.00;;;23.50;59.70;;;;;;5014119;28;20022;-43
2023/06/29 11:52:44;;;;;;;7.97;3.97;;;23.50;59.60;;;;;;5013799;28;20500;-44
2023/06/29 11:55:15;;;;;;;6.90;3.65;;;23.50;59.70;;;;;;5014454;28;20401;-45
2023/06/29 11:57:52;;;;;;;6.15;3.67;;;23.50;59.70;;;;;;5013832;28;20504;-42
2023/06/29 12:00:18;;;;;;;7.68;3.80;;;23.50;59.70;;;;;;5013964;28;20165;-42
2023/06/29 12:02:44;;;;;;;9.52;3.92;;;23.50;59.80;;;;;;5013507;28;20076;-42
2023/06/29 12:05:10;;;;;;;8.40;3.75;;;23.50;59.80;;;;;;5013734;28;20080;-45
2023/06/29 12:07:46;;;;;;;6.70;3.60;;;23.50;59.80;;;;;;5013884;28;20030;-43
2023/06/29 12:10:23;;;;;;;6.03;3.88;;;23.50;59.80;;;;;;5013685;28;20105;-42
2023/06/29 12:12:55;;;;;;;6.88;4.03;;;23.50;59.90;;;;;;5013379;28;20045;-42
2023/06/29 12:15:25;;;;;;;5.68;3.63;;;23.50;59.90;;;;;;5013666;28;20084;-42
2023/06/29 12:17:53;;;;;;;;;;;23.40;59.90;;;;;;5013950;28;20033;-42
2023/06/29 12:20:20;;;;;;;6.60;3.90;;;23.40;59.90;;;;;;5013472;28;19920;-46
2023/06/29 12:22:48;;;;;;;8.10;4.10;;;23.50;60.00;;;;;;5012949;28;20048;-42
2023/06/29 12:25:16;;;;;;;7.25;4.20;;;23.40;59.90;;;;;;5013398;28;20061;-41
2023/06/29 12:27:46;;;;;;;7.32;3.97;;;23.40;59.90;;;;;;5013442;28;20037;-45
2023/06/29 12:30:17;;;;;;;5.88;3.53;;;23.40;59.90;;;;;;5013509;28;20507;-47
2023/06/29 12:32:45;;;;;;;6.72;3.65;;;23.40;59.90;;;;;;5013042;28;20508;-47
2023/06/29 12:35:15;;;;;;;6.55;3.75;;;23.40;60.00;;;;;;5013090;28;20042;-48
2023/06/29 12:37:41;;;;;;;6.50;4.28;;;23.50;60.00;;;;;;5013128;28;20117;-46
2023/06/29 12:40:07;;;;;;;6.95;4.00;;;23.40;60.00;;;;;;5013294;28;20109;-46
2023/06/29 12:42:33;;;;;;;6.88;3.80;;;23.40;60.00;;;;;;5012830;28;20025;-47
2023/06/29 12:45:00;;;;;;;8.40;4.18;;;23.40;60.00;;;;;;5013039;28;20405;-44
2023/06/29 12:47:29;;;;;;;7.45;4.00;;;23.40;60.00;;;;;;5013004;28;20018;-47